createdAt,value
2017-10-11T00:00:06.209Z,99.99
2017-10-11T00:01:05.810Z,99.99
2017-10-11T00:02:06.311Z,99.99
2017-10-11T00:03:05.478Z,99.99
2017-10-11T00:04:05.682Z,99.99
2017-10-11T00:05:05.910Z,99.95
2017-10-11T00:06:05.436Z,99.99
2017-10-11T00:07:05.624Z,99.99
2017-10-11T00:08:06.113Z,99.95
2017-10-11T00:09:05.031Z,99.95
2017-10-11T00:10:06.348Z,99.85
2017-10-11T00:11:05.927Z,99.95
2017-10-11T00:12:05.422Z,99.85
2017-10-11T00:13:06.012Z,99.85
2017-10-11T00:14:05.954Z,99.66
2017-10-11T00:15:05.610Z,99.66
2017-10-11T00:16:06.135Z,99.76
2017-10-11T00:17:05.823Z,99.85
2017-10-11T00:18:05.333Z,99.85
2017-10-11T00:19:05.828Z,99.95
2017-10-11T00:20:06.336Z,99.99
2017-10-11T00:21:05.653Z,99.99
2017-10-11T00:22:05.282Z,99.99
2017-10-11T00:23:05.727Z,99.99
2017-10-11T00:24:06.502Z,99.99
2017-10-11T00:25:06.270Z,99.99
2017-10-11T00:26:05.807Z,99.99
2017-10-11T00:27:05.292Z,99.99
2017-10-11T00:28:05.843Z,99.99
2017-10-11T00:29:05.608Z,99.99
2017-10-11T00:30:06.442Z,99.99
2017-10-11T00:31:05.475Z,99.99
2017-10-11T00:32:05.491Z,99.99
2017-10-11T00:33:05.713Z,99.99
2017-10-11T00:34:05.906Z,99.99
2017-10-11T00:35:06.223Z,99.99
2017-10-11T00:36:05.744Z,99.99
2017-10-11T00:37:06.064Z,99.99
2017-10-11T00:38:05.632Z,99.99
2017-10-11T00:39:06.180Z,99.99
2017-10-11T00:40:05.788Z,99.99
2017-10-11T00:41:05.024Z,99.99
2017-10-11T00:42:05.165Z,99.99
2017-10-11T00:43:06.062Z,99.99
2017-10-11T00:44:05.628Z,99.99
2017-10-11T00:45:06.175Z,99.99
2017-10-11T00:46:05.822Z,99.99
2017-10-11T00:47:05.376Z,99.99
2017-10-11T00:48:05.906Z,99.99
2017-10-11T00:49:06.364Z,99.99
2017-10-11T00:50:06.330Z,99.99
2017-10-11T00:51:05.912Z,99.99
2017-10-11T00:52:05.516Z,99.99
2017-10-11T00:53:05.853Z,99.99
2017-10-11T00:54:04.976Z,99.99
2017-10-11T00:55:05.828Z,99.99
2017-10-11T00:56:05.055Z,99.99
2017-10-11T00:57:05.571Z,99.99
2017-10-11T00:58:05.968Z,99.99
2017-10-11T00:59:05.114Z,99.99
2017-10-11T01:00:05.642Z,99.99
2017-10-11T01:01:06.147Z,99.99
2017-10-11T01:02:05.635Z,99.99
2017-10-11T01:03:06.254Z,99.99
2017-10-11T01:04:05.806Z,99.99
2017-10-11T01:05:05.394Z,99.99
2017-10-11T01:06:05.004Z,99.99
2017-10-11T01:07:05.943Z,99.99
2017-10-11T01:08:05.543Z,99.99
2017-10-11T01:09:05.716Z,99.99
2017-10-11T01:10:05.926Z,99.99
2017-10-11T01:11:05.472Z,99.99
2017-10-11T01:12:05.960Z,99.99
2017-10-11T01:13:05.484Z,99.99
2017-10-11T01:14:05.691Z,99.99
2017-10-11T01:15:05.910Z,99.99
2017-10-11T01:16:04.976Z,99.99
2017-10-11T01:17:05.067Z,99.99
2017-10-11T01:18:05.595Z,99.99
2017-10-11T01:19:06.412Z,99.99
2017-10-11T01:20:05.953Z,99.99
2017-10-11T01:21:05.496Z,99.99
2017-10-11T01:22:06.050Z,99.99
2017-10-11T01:23:05.587Z,99.99
2017-10-11T01:24:06.049Z,99.99
2017-10-11T01:25:05.662Z,99.99
2017-10-11T01:26:06.657Z,99.99
2017-10-11T01:27:06.095Z,99.99
2017-10-11T01:28:05.750Z,99.99
2017-10-11T01:29:05.370Z,99.99
2017-10-11T01:30:05.697Z,99.99
2017-10-11T01:31:06.242Z,99.99
2017-10-11T01:32:05.724Z,99.99
2017-10-11T01:33:06.314Z,99.99
2017-10-11T01:34:05.617Z,99.99
2017-10-11T01:35:05.042Z,99.99
2017-10-11T01:36:05.586Z,99.99
2017-10-11T01:37:06.198Z,99.99
2017-10-11T01:38:05.827Z,99.99
2017-10-11T01:39:05.410Z,99.99
2017-10-11T01:40:05.555Z,99.99
2017-10-11T01:41:05.946Z,99.99
2017-10-11T01:42:05.422Z,99.99
2017-10-11T01:43:05.963Z,99.99
2017-10-11T01:44:05.628Z,99.99
2017-10-11T01:45:06.154Z,99.99
2017-10-11T01:46:05.498Z,99.99
2017-10-11T01:47:05.736Z,99.99
2017-10-11T01:48:06.015Z,99.99
2017-10-11T01:49:05.327Z,99.99
2017-10-11T01:50:05.917Z,99.99
2017-10-11T01:51:05.356Z,99.99
2017-10-11T01:52:05.899Z,99.99
2017-10-11T01:53:05.743Z,99.99
2017-10-11T01:54:06.038Z,99.99
2017-10-11T01:55:05.313Z,99.99
2017-10-11T01:56:05.950Z,99.99
2017-10-11T01:57:06.210Z,99.99
2017-10-11T01:58:06.116Z,99.99
2017-10-11T01:59:05.303Z,99.99
2017-10-11T02:00:05.445Z,99.99
2017-10-11T02:01:05.596Z,99.99
2017-10-11T02:02:06.202Z,99.99
2017-10-11T02:03:05.709Z,99.99
2017-10-11T02:04:05.863Z,99.99
2017-10-11T02:05:05.558Z,99.99
2017-10-11T02:06:06.002Z,99.99
2017-10-11T02:07:05.507Z,99.99
2017-10-11T02:08:06.379Z,99.99
2017-10-11T02:09:06.097Z,99.99
2017-10-11T02:10:05.810Z,99.99
2017-10-11T02:11:05.340Z,99.99
2017-10-11T02:12:05.649Z,99.99
2017-10-11T02:13:05.955Z,99.99
2017-10-11T02:14:05.516Z,99.99
2017-10-11T02:15:06.224Z,99.99
2017-10-11T02:16:05.776Z,99.99
2017-10-11T02:17:05.669Z,99.99
2017-10-11T02:18:05.601Z,99.99
2017-10-11T02:19:05.760Z,99.99
2017-10-11T02:20:05.584Z,99.99
2017-10-11T02:21:06.131Z,99.99
2017-10-11T02:22:05.260Z,99.99
2017-10-11T02:23:05.592Z,99.99
2017-10-11T02:24:05.715Z,99.99
2017-10-11T02:25:06.007Z,99.99
2017-10-11T02:26:05.533Z,99.99
2017-10-11T02:27:05.657Z,99.99
2017-10-11T02:28:06.630Z,99.99
2017-10-11T02:29:06.104Z,99.99
2017-10-11T02:30:05.243Z,99.99
2017-10-11T02:31:05.844Z,99.99
2017-10-11T02:32:05.523Z,99.99
2017-10-11T02:33:06.282Z,99.99
2017-10-11T02:34:06.252Z,99.99
2017-10-11T02:35:06.882Z,99.99
2017-10-11T02:36:06.921Z,99.99
2017-10-11T02:37:06.861Z,99.99
2017-10-11T02:38:06.642Z,99.99
2017-10-11T02:39:06.471Z,99.99
2017-10-11T02:40:05.907Z,99.99
2017-10-11T02:41:05.986Z,99.99
2017-10-11T02:42:06.675Z,99.99
2017-10-11T02:43:06.641Z,99.99
2017-10-11T02:44:07.238Z,99.99
2017-10-11T02:45:07.394Z,99.99
2017-10-11T02:46:06.606Z,99.99
2017-10-11T02:47:06.376Z,99.99
2017-10-11T02:48:06.236Z,99.99
2017-10-11T02:49:06.690Z,99.99
2017-10-11T02:50:06.890Z,99.99
2017-10-11T02:51:05.893Z,99.99
2017-10-11T02:52:06.764Z,99.99
2017-10-11T02:53:06.051Z,99.99
2017-10-11T02:54:05.822Z,99.99
2017-10-11T02:55:05.709Z,99.99
2017-10-11T02:56:05.953Z,99.99
2017-10-11T02:57:05.484Z,99.99
2017-10-11T02:58:06.045Z,99.99
2017-10-11T02:59:05.197Z,99.99
2017-10-11T03:00:05.636Z,99.99
2017-10-11T03:01:05.746Z,99.99
2017-10-11T03:02:05.583Z,99.99
2017-10-11T03:03:05.827Z,99.99
2017-10-11T03:04:05.376Z,99.99
2017-10-11T03:05:05.602Z,99.99
2017-10-11T03:06:06.335Z,99.99
2017-10-11T03:07:05.929Z,99.99
2017-10-11T03:08:05.419Z,99.99
2017-10-11T03:09:05.960Z,99.99
2017-10-11T03:10:05.478Z,99.99
2017-10-11T03:11:06.000Z,99.99
2017-10-11T03:12:06.416Z,99.99
2017-10-11T03:13:05.576Z,99.99
2017-10-11T03:14:06.078Z,99.99
2017-10-11T03:15:05.290Z,99.99
2017-10-11T03:16:05.414Z,99.99
2017-10-11T03:17:05.540Z,99.99
2017-10-11T03:18:05.612Z,99.99
2017-10-11T03:19:06.303Z,99.99
2017-10-11T03:20:05.388Z,99.99
2017-10-11T03:21:05.943Z,99.99
2017-10-11T03:22:05.573Z,99.99
2017-10-11T03:23:06.070Z,99.99
2017-10-11T03:24:05.651Z,99.99
2017-10-11T03:25:06.573Z,99.99
2017-10-11T03:26:05.614Z,99.99
2017-10-11T03:27:05.813Z,99.99
2017-10-11T03:28:05.942Z,99.99
2017-10-11T03:29:05.491Z,99.99
2017-10-11T03:30:06.175Z,99.99
2017-10-11T03:31:05.282Z,99.99
2017-10-11T03:32:06.086Z,99.99
2017-10-11T03:33:05.498Z,99.99
2017-10-11T03:34:05.870Z,99.99
2017-10-11T03:35:05.282Z,99.99
2017-10-11T03:36:06.181Z,99.99
2017-10-11T03:37:05.697Z,99.99
2017-10-11T03:38:06.253Z,99.99
2017-10-11T03:39:05.672Z,99.99
2017-10-11T03:40:06.274Z,99.99
2017-10-11T03:41:05.702Z,99.99
2017-10-11T03:42:05.988Z,99.99
2017-10-11T03:43:05.166Z,99.99
2017-10-11T03:44:05.858Z,99.99
2017-10-11T03:45:06.016Z,99.99
2017-10-11T03:46:05.517Z,99.99
2017-10-11T03:47:06.108Z,99.99
2017-10-11T03:48:05.586Z,99.99
2017-10-11T03:49:06.100Z,99.99
2017-10-11T03:50:05.597Z,99.99
2017-10-11T03:51:06.314Z,99.99
2017-10-11T03:52:05.756Z,99.99
2017-10-11T03:53:05.931Z,99.99
2017-10-11T03:54:05.331Z,99.99
2017-10-11T03:55:05.830Z,99.99
2017-10-11T03:56:05.521Z,99.99
2017-10-11T03:57:05.790Z,99.99
2017-10-11T03:58:06.345Z,99.99
2017-10-11T03:59:05.907Z,99.99
2017-10-11T04:00:05.531Z,99.99
2017-10-11T04:01:06.021Z,99.99
2017-10-11T04:02:05.155Z,99.99
2017-10-11T04:03:05.251Z,99.99
2017-10-11T04:04:05.810Z,99.99
2017-10-11T04:05:04.974Z,99.99
2017-10-11T04:06:05.474Z,99.99
2017-10-11T04:07:06.809Z,99.99
2017-10-11T04:08:05.351Z,99.99
2017-10-11T04:09:05.947Z,99.99
2017-10-11T04:10:05.289Z,99.99
2017-10-11T04:11:05.769Z,99.99
2017-10-11T04:12:05.022Z,99.99
2017-10-11T04:13:05.671Z,99.99
2017-10-11T04:14:05.426Z,99.99
2017-10-11T04:15:06.044Z,99.99
2017-10-11T04:16:05.564Z,99.99
2017-10-11T04:17:05.818Z,99.99
2017-10-11T04:18:05.611Z,99.99
2017-10-11T04:19:05.868Z,99.99
2017-10-11T04:20:05.181Z,99.99
2017-10-11T04:21:05.726Z,99.99
2017-10-11T04:22:06.741Z,99.99
2017-10-11T04:23:05.976Z,99.99
2017-10-11T04:24:05.143Z,99.99
2017-10-11T04:25:05.469Z,99.99
2017-10-11T04:26:05.707Z,99.99
2017-10-11T04:27:05.988Z,99.99
2017-10-11T04:28:05.607Z,99.99
2017-10-11T04:29:06.263Z,99.99
2017-10-11T04:30:06.050Z,99.99
2017-10-11T04:31:09.064Z,99.99
2017-10-11T04:32:18.678Z,99.99
2017-10-11T04:33:06.333Z,99.99
2017-10-11T04:34:06.217Z,99.99
2017-10-11T04:35:05.943Z,99.99
2017-10-11T04:36:05.522Z,99.99
2017-10-11T04:37:06.092Z,99.99
2017-10-11T04:38:05.699Z,99.99
2017-10-11T04:39:05.816Z,99.99
2017-10-11T04:40:04.965Z,99.99
2017-10-11T04:41:08.450Z,99.99
2017-10-11T04:42:05.709Z,99.99
2017-10-11T04:43:05.304Z,99.99
2017-10-11T04:44:05.935Z,99.99
2017-10-11T04:45:05.993Z,99.99
2017-10-11T04:46:05.521Z,99.99
2017-10-11T04:47:06.158Z,99.99
2017-10-11T04:48:05.502Z,99.99
2017-10-11T04:49:05.610Z,99.99
2017-10-11T04:50:06.112Z,99.99
2017-10-11T04:51:05.694Z,99.99
2017-10-11T04:52:06.136Z,99.99
2017-10-11T04:53:05.711Z,99.99
2017-10-11T04:54:06.556Z,99.99
2017-10-11T04:55:05.645Z,99.99
2017-10-11T04:56:05.793Z,99.99
2017-10-11T04:57:06.002Z,99.99
2017-10-11T04:58:05.565Z,99.99
2017-10-11T04:59:06.263Z,99.99
2017-10-11T05:00:05.512Z,99.99
2017-10-11T05:01:05.788Z,99.99
2017-10-11T05:02:04.915Z,99.99
2017-10-11T05:03:06.858Z,99.99
2017-10-11T05:04:05.720Z,99.99
2017-10-11T05:05:06.584Z,99.99
2017-10-11T05:06:05.104Z,99.99
2017-10-11T05:07:05.606Z,99.99
2017-10-11T05:08:06.257Z,99.99
2017-10-11T05:09:05.905Z,99.99
2017-10-11T05:10:06.104Z,99.99
2017-10-11T05:11:05.342Z,99.99
2017-10-11T05:12:05.589Z,99.99
2017-10-11T05:13:05.796Z,99.99
2017-10-11T05:14:05.209Z,99.99
2017-10-11T05:15:05.404Z,99.99
2017-10-11T05:16:06.689Z,99.99
2017-10-11T05:17:06.312Z,99.99
2017-10-11T05:18:06.033Z,99.99
2017-10-11T05:19:05.488Z,99.99
2017-10-11T05:20:05.677Z,99.99
2017-10-11T05:21:05.310Z,99.99
2017-10-11T05:22:05.918Z,99.99
2017-10-11T05:23:05.353Z,99.99
2017-10-11T05:24:05.901Z,99.99
2017-10-11T05:25:05.540Z,99.99
2017-10-11T05:26:06.084Z,99.99
2017-10-11T05:27:05.378Z,99.99
2017-10-11T05:28:05.379Z,99.99
2017-10-11T05:29:05.995Z,99.99
2017-10-11T05:30:05.182Z,99.99
2017-10-11T05:31:06.306Z,99.99
2017-10-11T05:32:05.926Z,99.99
2017-10-11T05:33:05.533Z,99.99
2017-10-11T05:34:06.104Z,99.99
2017-10-11T05:35:05.448Z,99.99
2017-10-11T05:36:06.393Z,99.99
2017-10-11T05:37:06.239Z,99.99
2017-10-11T05:38:05.808Z,99.99
2017-10-11T05:39:05.410Z,99.99
2017-10-11T05:40:05.732Z,99.99
2017-10-11T05:41:05.539Z,99.99
2017-10-11T05:42:06.091Z,99.99
2017-10-11T05:43:05.153Z,99.99
2017-10-11T05:44:06.408Z,99.99
2017-10-11T05:45:06.080Z,99.99
2017-10-11T05:46:06.337Z,99.99
2017-10-11T05:47:05.576Z,99.99
2017-10-11T05:48:05.979Z,99.99
2017-10-11T05:49:05.586Z,99.99
2017-10-11T05:50:06.134Z,99.99
2017-10-11T05:51:05.729Z,99.99
2017-10-11T05:52:06.799Z,99.99
2017-10-11T05:53:05.442Z,99.99
2017-10-11T05:54:05.593Z,99.99
2017-10-11T05:55:06.676Z,99.99
2017-10-11T05:56:05.883Z,99.99
2017-10-11T05:57:05.110Z,99.99
2017-10-11T05:58:05.821Z,99.99
2017-10-11T05:59:05.443Z,99.99
2017-10-11T06:00:05.860Z,99.99
2017-10-11T06:01:05.225Z,99.99
2017-10-11T06:02:05.785Z,99.99
2017-10-11T06:03:05.041Z,99.99
2017-10-11T06:04:05.214Z,99.99
2017-10-11T06:05:05.493Z,99.99
2017-10-11T06:06:05.816Z,99.99
2017-10-11T06:07:05.693Z,99.99
2017-10-11T06:08:06.247Z,99.99
2017-10-11T06:09:05.621Z,99.99
2017-10-11T06:10:06.290Z,99.99
2017-10-11T06:11:05.993Z,99.99
2017-10-11T06:12:05.610Z,99.99
2017-10-11T06:13:05.432Z,99.99
2017-10-11T06:14:06.841Z,99.99
2017-10-11T06:15:06.452Z,99.99
2017-10-11T06:16:05.837Z,99.99
2017-10-11T06:17:05.194Z,99.99
2017-10-11T06:18:05.854Z,99.99
2017-10-11T06:19:05.168Z,99.99
2017-10-11T06:20:06.233Z,99.99
2017-10-11T06:21:05.953Z,99.99
2017-10-11T06:22:05.656Z,99.99
2017-10-11T06:23:06.028Z,99.99
2017-10-11T06:24:06.214Z,99.99
2017-10-11T06:25:05.911Z,99.99
2017-10-11T06:26:05.662Z,99.71
2017-10-11T06:27:05.989Z,99.71
2017-10-11T06:28:06.141Z,99.80
2017-10-11T06:29:05.549Z,99.71
2017-10-11T06:30:06.163Z,99.62
2017-10-11T06:31:05.842Z,99.80
2017-10-11T06:32:06.841Z,99.52
2017-10-11T06:33:05.516Z,99.62
2017-10-11T06:34:05.915Z,99.33
2017-10-11T06:35:05.758Z,99.23
2017-10-11T06:36:05.160Z,99.23
2017-10-11T06:37:05.407Z,99.33
2017-10-11T06:38:05.584Z,99.33
2017-10-11T06:39:05.888Z,99.33
2017-10-11T06:40:07.375Z,99.33
2017-10-11T06:41:05.679Z,99.52
2017-10-11T06:42:06.499Z,99.33
2017-10-11T06:43:06.050Z,99.23
2017-10-11T06:44:06.213Z,99.23
2017-10-11T06:45:05.840Z,99.14
2017-10-11T06:46:05.562Z,99.33
2017-10-11T06:47:05.889Z,99.33
2017-10-11T06:48:06.049Z,99.33
2017-10-11T06:49:05.747Z,99.23
2017-10-11T06:50:05.481Z,99.23
2017-10-11T06:51:05.953Z,99.14
2017-10-11T06:52:05.611Z,98.94
2017-10-11T06:53:06.082Z,98.85
2017-10-11T06:54:05.811Z,98.66
2017-10-11T06:55:05.274Z,98.66
2017-10-11T06:56:05.937Z,98.85
2017-10-11T06:57:05.702Z,99.04
2017-10-11T06:58:06.434Z,98.94
2017-10-11T06:59:05.894Z,98.94
2017-10-11T07:00:05.729Z,98.85
2017-10-11T07:01:06.398Z,98.75
2017-10-11T07:02:05.798Z,98.94
2017-10-11T07:03:06.365Z,99.04
2017-10-11T07:04:06.103Z,98.57
2017-10-11T07:05:05.896Z,98.37
2017-10-11T07:06:05.641Z,98.47
2017-10-11T07:07:05.972Z,98.57
2017-10-11T07:08:05.680Z,98.57
2017-10-11T07:09:06.327Z,98.66
2017-10-11T07:10:05.784Z,98.57
2017-10-11T07:11:06.212Z,98.66
2017-10-11T07:12:05.607Z,98.37
2017-10-11T07:13:06.329Z,98.37
2017-10-11T07:14:06.058Z,98.28
2017-10-11T07:15:05.580Z,98.37
2017-10-11T07:16:06.323Z,98.33
2017-10-11T07:17:05.678Z,98.13
2017-10-11T07:18:07.103Z,98.13
2017-10-11T07:19:05.781Z,97.94
2017-10-11T07:20:06.669Z,97.94
2017-10-11T07:21:05.933Z,98.04
2017-10-11T07:22:05.341Z,97.85
2017-10-11T07:23:05.682Z,97.75
2017-10-11T07:24:06.256Z,97.85
2017-10-11T07:25:07.620Z,97.94
2017-10-11T07:26:05.924Z,97.94
2017-10-11T07:27:05.660Z,98.13
2017-10-11T07:28:06.007Z,97.75
2017-10-11T07:29:05.817Z,97.94
2017-10-11T07:30:05.733Z,97.75
2017-10-11T07:31:05.963Z,97.56
2017-10-11T07:32:05.741Z,97.47
2017-10-11T07:33:05.809Z,97.37
2017-10-11T07:34:05.720Z,97.47
2017-10-11T07:35:05.915Z,97.56
2017-10-11T07:36:05.900Z,97.37
2017-10-11T07:37:05.584Z,97.28
2017-10-11T07:38:06.349Z,97.18
2017-10-11T07:39:05.499Z,97.08
2017-10-11T07:40:06.229Z,97.37
2017-10-11T07:41:06.060Z,97.28
2017-10-11T07:42:05.914Z,96.99
2017-10-11T07:43:06.033Z,97.18
2017-10-11T07:44:05.723Z,97.18
2017-10-11T07:45:05.667Z,97.18
2017-10-11T07:46:05.577Z,97.18
2017-10-11T07:47:06.347Z,97.28
2017-10-11T07:48:05.819Z,97.37
2017-10-11T07:49:06.195Z,97.18
2017-10-11T07:50:05.859Z,97.28
2017-10-11T07:51:05.735Z,97.08
2017-10-11T07:52:06.086Z,97.28
2017-10-11T07:53:05.509Z,97.08
2017-10-11T07:54:05.882Z,96.99
2017-10-11T07:55:05.888Z,97.08
2017-10-11T07:56:05.742Z,96.89
2017-10-11T07:57:06.520Z,97.08
2017-10-11T07:58:06.182Z,97.18
2017-10-11T07:59:06.161Z,97.37
2017-10-11T08:00:06.042Z,97.18
2017-10-11T08:01:05.365Z,96.99
2017-10-11T08:02:06.057Z,96.99
2017-10-11T08:03:05.614Z,97.18
2017-10-11T08:04:06.090Z,97.18
2017-10-11T08:05:05.917Z,97.18
2017-10-11T08:06:05.751Z,97.08
2017-10-11T08:07:06.477Z,97.47
2017-10-11T08:08:06.513Z,97.18
2017-10-11T08:09:06.260Z,97.18
2017-10-11T08:10:06.022Z,97.28
2017-10-11T08:11:06.291Z,97.28
2017-10-11T08:12:05.898Z,97.18
2017-10-11T08:13:05.587Z,97.37
2017-10-11T08:14:06.060Z,97.47
2017-10-11T08:15:05.443Z,97.66
2017-10-11T08:16:06.502Z,97.75
2017-10-11T08:17:05.428Z,97.94
2017-10-11T08:18:05.675Z,97.85
2017-10-11T08:19:06.201Z,97.85
2017-10-11T08:20:05.885Z,97.94
2017-10-11T08:21:06.070Z,97.85
2017-10-11T08:22:05.739Z,97.75
2017-10-11T08:23:06.392Z,97.75
2017-10-11T08:24:06.105Z,97.75
2017-10-11T08:25:06.973Z,97.85
2017-10-11T08:26:05.678Z,97.47
2017-10-11T08:27:05.978Z,97.37
2017-10-11T08:28:05.689Z,97.56
2017-10-11T08:29:06.394Z,97.47
2017-10-11T08:30:06.049Z,97.47
2017-10-11T08:31:06.028Z,97.66
2017-10-11T08:32:05.596Z,97.56
2017-10-11T08:33:06.199Z,97.56
2017-10-11T08:34:06.111Z,97.61
2017-10-11T08:35:05.499Z,97.42
2017-10-11T08:36:05.826Z,97.42
2017-10-11T08:37:05.552Z,97.23
2017-10-11T08:38:06.227Z,97.33
2017-10-11T08:39:06.119Z,97.23
2017-10-11T08:40:05.749Z,97.42
2017-10-11T08:41:05.773Z,97.42
2017-10-11T08:42:06.594Z,97.52
2017-10-11T08:43:06.093Z,97.23
2017-10-11T08:44:05.835Z,97.23
2017-10-11T08:45:05.564Z,97.23
2017-10-11T08:46:06.767Z,97.04
2017-10-11T08:47:06.221Z,96.56
2017-10-11T08:48:06.149Z,96.66
2017-10-11T08:49:05.839Z,96.56
2017-10-11T08:50:06.272Z,96.56
2017-10-11T08:51:05.943Z,96.47
2017-10-11T08:52:06.036Z,96.37
2017-10-11T08:53:06.312Z,96.27
2017-10-11T08:54:06.054Z,96.37
2017-10-11T08:55:05.521Z,96.27
2017-10-11T08:56:05.987Z,96.37
2017-10-11T08:57:06.063Z,96.56
2017-10-11T08:58:05.772Z,96.47
2017-10-11T08:59:05.485Z,96.37
2017-10-11T09:00:06.103Z,96.27
2017-10-11T09:01:05.540Z,96.18
2017-10-11T09:02:06.892Z,96.18
2017-10-11T09:03:05.196Z,96.27
2017-10-11T09:04:05.694Z,96.37
2017-10-11T09:05:06.199Z,96.08
2017-10-11T09:06:06.204Z,96.27
2017-10-11T09:07:05.799Z,95.70
2017-10-11T09:08:06.410Z,95.61
2017-10-11T09:09:06.139Z,95.70
2017-10-11T09:10:05.992Z,95.61
2017-10-11T09:11:05.689Z,94.93
2017-10-11T09:12:06.502Z,95.03
2017-10-11T09:13:06.231Z,95.03
2017-10-11T09:14:06.424Z,95.22
2017-10-11T09:15:05.597Z,95.22
2017-10-11T09:16:06.371Z,95.03
2017-10-11T09:17:05.537Z,95.22
2017-10-11T09:18:06.270Z,95.03
2017-10-11T09:19:06.057Z,94.93
2017-10-11T09:20:05.961Z,94.65
2017-10-11T09:21:06.769Z,94.55
2017-10-11T09:22:06.626Z,94.46
2017-10-11T09:23:06.459Z,94.17
2017-10-11T09:24:06.729Z,94.21
2017-10-11T09:25:06.176Z,93.93
2017-10-11T09:26:05.782Z,93.93
2017-10-11T09:27:06.315Z,93.93
2017-10-11T09:28:06.816Z,92.97
2017-10-11T09:29:06.338Z,92.69
2017-10-11T09:30:06.388Z,92.69
2017-10-11T09:31:06.309Z,92.49
2017-10-11T09:32:06.092Z,92.06
2017-10-11T09:33:06.427Z,91.68
2017-10-11T09:34:05.953Z,91.77
2017-10-11T09:35:06.350Z,90.91
2017-10-11T09:36:06.140Z,90.91
2017-10-11T09:37:07.328Z,90.58
2017-10-11T09:38:06.048Z,89.81
2017-10-11T09:39:05.835Z,90.34
2017-10-11T09:40:05.486Z,90.82
2017-10-11T09:41:06.153Z,90.62
2017-10-11T09:42:05.904Z,90.15
2017-10-11T09:43:05.578Z,90.53
2017-10-11T09:44:06.277Z,90.44
2017-10-11T09:45:05.615Z,90.29
2017-10-11T09:46:06.544Z,90.09
2017-10-11T09:47:06.238Z,89.52
2017-10-11T09:48:06.034Z,89.14
2017-10-11T09:49:05.892Z,88.42
2017-10-11T09:50:05.398Z,87.84
2017-10-11T09:51:05.914Z,87.55
2017-10-11T09:52:05.858Z,86.69
2017-10-11T09:53:05.675Z,86.98
2017-10-11T09:54:06.364Z,86.69
2017-10-11T09:55:06.336Z,86.31
2017-10-11T09:56:06.059Z,86.50
2017-10-11T09:57:06.423Z,86.12
2017-10-11T09:58:05.932Z,86.12
2017-10-11T09:59:05.825Z,86.41
2017-10-11T10:00:06.330Z,86.88
2017-10-11T10:01:05.824Z,86.79
2017-10-11T10:02:05.350Z,86.69
2017-10-11T10:03:05.740Z,86.98
2017-10-11T10:04:05.656Z,87.08
2017-10-11T10:05:06.417Z,86.79
2017-10-11T10:06:05.868Z,86.50
2017-10-11T10:07:05.516Z,86.60
2017-10-11T10:08:06.323Z,86.79
2017-10-11T10:09:05.832Z,86.60
2017-10-11T10:10:05.624Z,86.69
2017-10-11T10:11:05.135Z,86.60
2017-10-11T10:12:06.598Z,86.41
2017-10-11T10:13:06.132Z,86.50
2017-10-11T10:14:05.666Z,86.88
2017-10-11T10:15:05.407Z,86.69
2017-10-11T10:16:08.892Z,87.08
2017-10-11T10:17:06.532Z,87.08
2017-10-11T10:18:06.164Z,87.61
2017-10-11T10:19:05.471Z,87.51
2017-10-11T10:20:06.078Z,87.70
2017-10-11T10:21:05.546Z,87.70
2017-10-11T10:22:06.344Z,86.84
2017-10-11T10:23:06.368Z,87.51
2017-10-11T10:24:06.140Z,88.09
2017-10-11T10:25:06.205Z,88.18
2017-10-11T10:26:05.652Z,87.80
2017-10-11T10:27:05.179Z,87.80
2017-10-11T10:28:06.396Z,87.03
2017-10-11T10:29:05.882Z,86.94
2017-10-11T10:30:05.851Z,86.84
2017-10-11T10:31:05.637Z,86.84
2017-10-11T10:32:06.031Z,86.65
2017-10-11T10:33:05.885Z,86.94
2017-10-11T10:34:05.709Z,86.88
2017-10-11T10:35:06.500Z,86.88
2017-10-11T10:36:06.085Z,86.21
2017-10-11T10:37:05.865Z,86.21
2017-10-11T10:38:05.684Z,86.31
2017-10-11T10:39:06.548Z,86.41
2017-10-11T10:40:05.634Z,86.21
2017-10-11T10:41:05.439Z,86.79
2017-10-11T10:42:05.995Z,87.08
2017-10-11T10:43:07.418Z,86.94
2017-10-11T10:44:06.818Z,87.13
2017-10-11T10:45:05.442Z,86.84
2017-10-11T10:46:05.827Z,86.74
2017-10-11T10:47:06.180Z,86.94
2017-10-11T10:48:06.327Z,87.13
2017-10-11T10:49:05.970Z,87.03
2017-10-11T10:50:05.910Z,87.23
2017-10-11T10:51:06.410Z,87.32
2017-10-11T10:52:06.248Z,87.70
2017-10-11T10:53:05.877Z,88.18
2017-10-11T10:54:05.511Z,88.18
2017-10-11T10:55:05.921Z,88.56
2017-10-11T10:56:05.985Z,88.62
2017-10-11T10:57:05.913Z,88.71
2017-10-11T10:58:05.106Z,88.81
2017-10-11T10:59:05.834Z,89.00
2017-10-11T11:00:06.087Z,89.00
2017-10-11T11:01:05.809Z,89.29
2017-10-11T11:02:05.631Z,89.29
2017-10-11T11:03:06.333Z,89.09
2017-10-11T11:04:06.020Z,89.19
2017-10-11T11:05:05.784Z,89.38
2017-10-11T11:06:05.612Z,89.48
2017-10-11T11:07:06.160Z,89.19
2017-10-11T11:08:05.907Z,89.58
2017-10-11T11:09:05.643Z,89.86
2017-10-11T11:10:06.066Z,89.95
2017-10-11T11:11:05.887Z,89.95
2017-10-11T11:12:05.251Z,89.86
2017-10-11T11:13:06.090Z,89.76
2017-10-11T11:14:18.235Z,90.15
2017-10-11T11:15:18.997Z,90.15
2017-10-11T11:16:18.662Z,89.86
2017-10-11T11:17:18.296Z,89.86
2017-10-11T11:18:18.908Z,89.48
2017-10-11T11:19:18.319Z,89.76
2017-10-11T11:20:18.647Z,89.48
2017-10-11T11:21:18.023Z,89.67
2017-10-11T11:22:18.760Z,89.58
2017-10-11T11:23:18.846Z,89.67
2017-10-11T11:24:18.687Z,89.58
2017-10-11T11:25:18.506Z,89.19
2017-10-11T11:26:18.308Z,89.38
2017-10-11T11:27:18.831Z,89.19
2017-10-11T11:28:18.380Z,89.00
2017-10-11T11:29:18.790Z,88.81
2017-10-11T11:30:18.718Z,88.62
2017-10-11T11:31:18.306Z,88.71
2017-10-11T11:32:18.428Z,88.62
2017-10-11T11:33:19.181Z,88.23
2017-10-11T11:34:18.932Z,88.13
2017-10-11T11:35:18.629Z,87.85
2017-10-11T11:36:18.777Z,87.80
2017-10-11T11:37:18.525Z,87.03
2017-10-11T11:38:18.106Z,86.74
2017-10-11T11:39:18.878Z,86.46
2017-10-11T11:40:18.571Z,86.36
2017-10-11T11:41:18.361Z,86.27
2017-10-11T11:42:19.096Z,85.98
2017-10-11T11:43:18.974Z,85.69
2017-10-11T11:44:18.946Z,85.60
2017-10-11T11:45:18.675Z,85.35
2017-10-11T11:46:18.450Z,85.25
2017-10-11T11:47:19.111Z,85.64
2017-10-11T11:48:18.802Z,85.16
2017-10-11T11:49:18.559Z,84.88
2017-10-11T11:50:18.406Z,85.25
2017-10-11T11:51:18.798Z,85.12
2017-10-11T11:52:18.779Z,85.31
2017-10-11T11:53:18.713Z,85.25
2017-10-11T11:54:18.773Z,85.25
2017-10-11T11:54:49.216Z,84.88
2017-10-11T11:55:49.722Z,84.68
2017-10-11T11:56:49.010Z,84.11
2017-10-11T11:57:49.708Z,83.72
2017-10-11T11:58:49.123Z,83.53
2017-10-11T11:59:50.087Z,83.63
2017-10-11T12:00:49.579Z,82.86
2017-10-11T12:01:49.372Z,82.67
2017-10-11T12:02:48.803Z,82.52
2017-10-11T12:03:49.706Z,82.62
2017-10-11T12:04:49.169Z,81.85
2017-10-11T12:05:49.788Z,81.46
2017-10-11T12:06:50.207Z,81.18
2017-10-11T12:07:50.116Z,81.08
2017-10-11T12:08:49.610Z,81.22
2017-10-11T12:09:49.442Z,80.74
2017-10-11T12:10:48.930Z,78.63
2017-10-11T12:11:49.432Z,78.67
2017-10-11T12:12:49.045Z,78.19
2017-10-11T12:13:49.591Z,77.51
2017-10-11T12:14:48.994Z,76.84
2017-10-11T12:15:49.961Z,76.40
2017-10-11T12:16:49.364Z,76.40
2017-10-11T12:17:49.137Z,76.02
2017-10-11T12:18:50.035Z,75.35
2017-10-11T12:19:49.497Z,75.54
2017-10-11T12:20:50.282Z,75.70
2017-10-11T12:21:49.509Z,76.37
2017-10-11T12:22:49.351Z,76.56
2017-10-11T12:23:49.964Z,75.79
2017-10-11T12:24:49.361Z,75.79
2017-10-11T12:25:48.817Z,75.95
2017-10-11T12:26:49.812Z,76.42
2017-10-11T12:27:49.541Z,76.32
2017-10-11T12:28:49.066Z,76.52
2017-10-11T12:29:49.876Z,77.19
2017-10-11T12:30:49.591Z,76.81
2017-10-11T12:31:49.343Z,76.42
2017-10-11T12:32:49.536Z,76.42
2017-10-11T12:33:49.392Z,76.32
2017-10-11T12:34:49.182Z,77.00
2017-10-11T12:35:49.632Z,76.71
2017-10-11T12:36:49.499Z,76.32
2017-10-11T12:37:49.075Z,76.23
2017-10-11T12:38:49.895Z,75.75
2017-10-11T12:39:50.402Z,75.37
2017-10-11T12:40:49.135Z,75.75
2017-10-11T12:41:49.671Z,75.56
2017-10-11T12:42:49.444Z,75.08
2017-10-11T12:43:49.301Z,75.31
2017-10-11T12:44:50.146Z,74.54
2017-10-11T12:45:49.363Z,74.64
2017-10-11T12:46:48.855Z,74.06
2017-10-11T12:47:49.857Z,73.87
2017-10-11T12:48:49.490Z,73.49
2017-10-11T12:49:49.616Z,73.30
2017-10-11T12:50:49.455Z,72.91
2017-10-11T12:51:49.406Z,72.81